sensor_id;sensor_type;location;lat;lon;timestamp;P1;durP1;ratioP1;P2;durP2;ratioP2
4738;SDS011;2383;48.632;10.156;2023-06-22T00:03:32;13.60;;;10.65;;
4738;SDS011;2383;48.632;10.156;2023-06-22T00:07:34;12.30;;;9.15;;
4738;SDS011;2383;48.632;10.156;2023-06-22T00:11:37;16.65;;;10.88;;
4738;SDS011;2383;48.632;10.156;2023-06-22T00:15:40;16.67;;;9.93;;
4738;SDS011;2383;48.632;10.156;2023-06-22T00:19:43;12.18;;;7.95;;
4738;SDS011;2383;48.632;10.156;2023-06-22T00:23:48;17.30;;;9.50;;
4738;SDS011;2383;48.632;10.156;2023-06-22T00:27:50;10.68;;;9.05;;
4738;SDS011;2383;48.632;10.156;2023-06-22T00:31:52;13.40;;;9.38;;
4738;SDS011;2383;48.632;10.156;2023-06-22T00:35:56;11.40;;;8.82;;
4738;SDS011;2383;48.632;10.156;2023-06-22T00:39:58;12.00;;;9.13;;
4738;SDS011;2383;48.632;10.156;2023-06-22T00:44:00;14.65;;;9.05;;
4738;SDS011;2383;48.632;10.156;2023-06-22T00:48:05;12.88;;;9.48;;
4738;SDS011;2383;48.632;10.156;2023-06-22T00:52:09;13.85;;;8.77;;
4738;SDS011;2383;48.632;10.156;2023-06-22T00:56:15;11.60;;;8.57;;
4738;SDS011;2383;48.632;10.156;2023-06-22T01:00:21;13.32;;;9.68;;
4738;SDS011;2383;48.632;10.156;2023-06-22T01:04:34;12.23;;;8.90;;
4738;SDS011;2383;48.632;10.156;2023-06-22T01:12:48;11.70;;;8.60;;
4738;SDS011;2383;48.632;10.156;2023-06-22T01:16:54;13.93;;;8.75;;
4738;SDS011;2383;48.632;10.156;2023-06-22T01:20:57;17.42;;;9.57;;
4738;SDS011;2383;48.632;10.156;2023-06-22T01:25:13;16.55;;;10.18;;
4738;SDS011;2383;48.632;10.156;2023-06-22T01:29:22;12.88;;;8.88;;
4738;SDS011;2383;48.632;10.156;2023-06-22T01:33:30;13.00;;;9.10;;
4738;SDS011;2383;48.632;10.156;2023-06-22T01:37:36;12.95;;;9.20;;
4738;SDS011;2383;48.632;10.156;2023-06-22T01:41:39;12.65;;;9.02;;
4738;SDS011;2383;48.632;10.156;2023-06-22T01:45:43;10.88;;;8.95;;
4738;SDS011;2383;48.632;10.156;2023-06-22T01:49:46;15.90;;;9.07;;
4738;SDS011;2383;48.632;10.156;2023-06-22T01:53:49;12.20;;;8.45;;
4738;SDS011;2383;48.632;10.156;2023-06-22T01:57:53;12.85;;;8.25;;
4738;SDS011;2383;48.632;10.156;2023-06-22T02:01:58;12.55;;;8.55;;
4738;SDS011;2383;48.632;10.156;2023-06-22T02:06:16;15.68;;;8.85;;
4738;SDS011;2383;48.632;10.156;2023-06-22T02:10:22;19.75;;;9.55;;
4738;SDS011;2383;48.632;10.156;2023-06-22T02:14:27;12.32;;;8.60;;
4738;SDS011;2383;48.632;10.156;2023-06-22T02:18:30;12.55;;;9.18;;
4738;SDS011;2383;48.632;10.156;2023-06-22T02:22:32;13.85;;;9.35;;
4738;SDS011;2383;48.632;10.156;2023-06-22T02:26:34;11.93;;;9.18;;
4738;SDS011;2383;48.632;10.156;2023-06-22T02:30:37;14.05;;;8.43;;
4738;SDS011;2383;48.632;10.156;2023-06-22T02:34:41;14.10;;;8.90;;
4738;SDS011;2383;48.632;10.156;2023-06-22T02:38:44;17.50;;;9.85;;
4738;SDS011;2383;48.632;10.156;2023-06-22T02:42:49;15.95;;;9.05;;
4738;SDS011;2383;48.632;10.156;2023-06-22T02:46:51;16.02;;;9.95;;
4738;SDS011;2383;48.632;10.156;2023-06-22T02:50:53;14.65;;;8.32;;
4738;SDS011;2383;48.632;10.156;2023-06-22T02:54:56;16.10;;;9.73;;
4738;SDS011;2383;48.632;10.156;2023-06-22T02:58:58;17.85;;;9.23;;
4738;SDS011;2383;48.632;10.156;2023-06-22T03:03:08;18.95;;;9.60;;
4738;SDS011;2383;48.632;10.156;2023-06-22T03:07:10;22.20;;;9.65;;
4738;SDS011;2383;48.632;10.156;2023-06-22T03:11:12;20.77;;;9.55;;
4738;SDS011;2383;48.632;10.156;2023-06-22T03:15:15;13.57;;;9.80;;
4738;SDS011;2383;48.632;10.156;2023-06-22T03:19:18;15.05;;;9.27;;
4738;SDS011;2383;48.632;10.156;2023-06-22T03:23:23;16.23;;;9.55;;
4738;SDS011;2383;48.632;10.156;2023-06-22T03:27:25;19.80;;;9.07;;
4738;SDS011;2383;48.632;10.156;2023-06-22T03:31:27;16.95;;;9.25;;
4738;SDS011;2383;48.632;10.156;2023-06-22T03:35:29;13.93;;;8.85;;
4738;SDS011;2383;48.632;10.156;2023-06-22T03:39:31;20.40;;;9.68;;
4738;SDS011;2383;48.632;10.156;2023-06-22T03:43:33;19.05;;;9.70;;
4738;SDS011;2383;48.632;10.156;2023-06-22T03:47:38;21.95;;;9.70;;
4738;SDS011;2383;48.632;10.156;2023-06-22T03:51:40;21.75;;;10.35;;
4738;SDS011;2383;48.632;10.156;2023-06-22T03:55:51;24.85;;;10.52;;
4738;SDS011;2383;48.632;10.156;2023-06-22T03:59:56;23.60;;;10.27;;
4738;SDS011;2383;48.632;10.156;2023-06-22T04:03:58;17.60;;;9.18;;
4738;SDS011;2383;48.632;10.156;2023-06-22T04:08:00;21.25;;;9.68;;
4738;SDS011;2383;48.632;10.156;2023-06-22T04:12:02;20.25;;;9.95;;
4738;SDS011;2383;48.632;10.156;2023-06-22T04:16:05;26.75;;;10.48;;
4738;SDS011;2383;48.632;10.156;2023-06-22T04:20:08;19.17;;;9.57;;
4738;SDS011;2383;48.632;10.156;2023-06-22T04:24:10;28.10;;;11.00;;
4738;SDS011;2383;48.632;10.156;2023-06-22T04:28:13;21.27;;;10.13;;
4738;SDS011;2383;48.632;10.156;2023-06-22T04:32:15;30.00;;;11.00;;
4738;SDS011;2383;48.632;10.156;2023-06-22T04:36:17;19.38;;;9.65;;
4738;SDS011;2383;48.632;10.156;2023-06-22T04:40:21;13.40;;;9.40;;
4738;SDS011;2383;48.632;10.156;2023-06-22T04:44:23;14.23;;;10.27;;
4738;SDS011;2383;48.632;10.156;2023-06-22T04:48:26;15.82;;;9.57;;
4738;SDS011;2383;48.632;10.156;2023-06-22T04:52:34;15.38;;;8.95;;
4738;SDS011;2383;48.632;10.156;2023-06-22T04:56:36;16.40;;;9.57;;
4738;SDS011;2383;48.632;10.156;2023-06-22T05:00:38;18.50;;;8.73;;
4738;SDS011;2383;48.632;10.156;2023-06-22T05:04:40;16.67;;;9.27;;
4738;SDS011;2383;48.632;10.156;2023-06-22T05:08:42;17.80;;;8.30;;
4738;SDS011;2383;48.632;10.156;2023-06-22T05:12:45;11.98;;;8.20;;
4738;SDS011;2383;48.632;10.156;2023-06-22T05:16:48;15.70;;;9.38;;
4738;SDS011;2383;48.632;10.156;2023-06-22T05:20:50;19.38;;;7.90;;
4738;SDS011;2383;48.632;10.156;2023-06-22T05:24:53;11.32;;;7.13;;
4738;SDS011;2383;48.632;10.156;2023-06-22T05:28:57;9.43;;;6.88;;
4738;SDS011;2383;48.632;10.156;2023-06-22T05:33:00;9.45;;;6.22;;
4738;SDS011;2383;48.632;10.156;2023-06-22T05:37:02;10.93;;;6.00;;
4738;SDS011;2383;48.632;10.156;2023-06-22T05:41:05;11.25;;;6.93;;
4738;SDS011;2383;48.632;10.156;2023-06-22T05:45:07;11.30;;;6.90;;
4738;SDS011;2383;48.632;10.156;2023-06-22T05:49:11;10.25;;;6.88;;
4738;SDS011;2383;48.632;10.156;2023-06-22T05:53:13;13.73;;;6.65;;
4738;SDS011;2383;48.632;10.156;2023-06-22T05:57:15;11.23;;;6.43;;
4738;SDS011;2383;48.632;10.156;2023-06-22T06:01:17;9.23;;;6.47;;
4738;SDS011;2383;48.632;10.156;2023-06-22T06:05:20;8.30;;;5.82;;
4738;SDS011;2383;48.632;10.156;2023-06-22T06:09:22;6.63;;;5.70;;
4738;SDS011;2383;48.632;10.156;2023-06-22T06:13:24;8.55;;;5.88;;
4738;SDS011;2383;48.632;10.156;2023-06-22T06:17:26;9.32;;;5.60;;
4738;SDS011;2383;48.632;10.156;2023-06-22T06:21:28;8.88;;;5.63;;
4738;SDS011;2383;48.632;10.156;2023-06-22T06:25:31;12.02;;;6.30;;
4738;SDS011;2383;48.632;10.156;2023-06-22T06:29:33;9.13;;;6.30;;
4738;SDS011;2383;48.632;10.156;2023-06-22T06:33:36;12.25;;;6.10;;
4738;SDS011;2383;48.632;10.156;2023-06-22T06:37:38;12.63;;;6.38;;
4738;SDS011;2383;48.632;10.156;2023-06-22T06:41:41;7.72;;;5.32;;
4738;SDS011;2383;48.632;10.156;2023-06-22T06:45:49;9.40;;;6.25;;
4738;SDS011;2383;48.632;10.156;2023-06-22T06:49:53;10.32;;;6.25;;
4738;SDS011;2383;48.632;10.156;2023-06-22T06:53:55;8.93;;;5.72;;
4738;SDS011;2383;48.632;10.156;2023-06-22T06:57:57;10.65;;;5.38;;
4738;SDS011;2383;48.632;10.156;2023-06-22T07:01:59;8.27;;;5.20;;
4738;SDS011;2383;48.632;10.156;2023-06-22T07:06:01;7.95;;;5.80;;
4738;SDS011;2383;48.632;10.156;2023-06-22T07:10:04;11.45;;;5.45;;
4738;SDS011;2383;48.632;10.156;2023-06-22T07:14:07;10.50;;;5.47;;
4738;SDS011;2383;48.632;10.156;2023-06-22T07:18:09;6.97;;;5.28;;
4738;SDS011;2383;48.632;10.156;2023-06-22T07:22:11;9.07;;;5.20;;
4738;SDS011;2383;48.632;10.156;2023-06-22T07:26:13;10.88;;;6.00;;
4738;SDS011;2383;48.632;10.156;2023-06-22T07:30:17;8.82;;;5.45;;
4738;SDS011;2383;48.632;10.156;2023-06-22T07:34:19;9.10;;;5.85;;
4738;SDS011;2383;48.632;10.156;2023-06-22T07:38:21;11.88;;;6.30;;
4738;SDS011;2383;48.632;10.156;2023-06-22T07:42:26;12.43;;;6.85;;
4738;SDS011;2383;48.632;10.156;2023-06-22T07:46:28;12.70;;;6.78;;
4738;SDS011;2383;48.632;10.156;2023-06-22T07:50:31;15.05;;;6.68;;
4738;SDS011;2383;48.632;10.156;2023-06-22T07:54:33;12.82;;;6.68;;
4738;SDS011;2383;48.632;10.156;2023-06-22T07:58:36;9.98;;;6.70;;
4738;SDS011;2383;48.632;10.156;2023-06-22T08:02:38;10.90;;;7.28;;
4738;SDS011;2383;48.632;10.156;2023-06-22T08:06:41;15.20;;;6.95;;
4738;SDS011;2383;48.632;10.156;2023-06-22T08:10:45;12.38;;;7.50;;
4738;SDS011;2383;48.632;10.156;2023-06-22T08:14:47;10.35;;;7.60;;
4738;SDS011;2383;48.632;10.156;2023-06-22T08:18:49;19.88;;;8.50;;
4738;SDS011;2383;48.632;10.156;2023-06-22T08:22:51;14.48;;;7.72;;
4738;SDS011;2383;48.632;10.156;2023-06-22T08:26:56;19.08;;;8.90;;
4738;SDS011;2383;48.632;10.156;2023-06-22T08:30:59;10.85;;;7.50;;
4738;SDS011;2383;48.632;10.156;2023-06-22T08:35:03;13.10;;;8.38;;
4738;SDS011;2383;48.632;10.156;2023-06-22T08:39:05;13.05;;;8.98;;
4738;SDS011;2383;48.632;10.156;2023-06-22T08:43:07;18.42;;;9.30;;
4738;SDS011;2383;48.632;10.156;2023-06-22T08:47:09;12.40;;;9.07;;
4738;SDS011;2383;48.632;10.156;2023-06-22T08:51:11;15.25;;;8.68;;
4738;SDS011;2383;48.632;10.156;2023-06-22T08:55:13;11.95;;;7.60;;
4738;SDS011;2383;48.632;10.156;2023-06-22T08:59:15;16.10;;;8.65;;
4738;SDS011;2383;48.632;10.156;2023-06-22T09:03:17;14.77;;;8.77;;
4738;SDS011;2383;48.632;10.156;2023-06-22T09:07:22;16.70;;;7.50;;
4738;SDS011;2383;48.632;10.156;2023-06-22T09:11:26;13.32;;;6.93;;
4738;SDS011;2383;48.632;10.156;2023-06-22T09:15:27;15.23;;;7.07;;
4738;SDS011;2383;48.632;10.156;2023-06-22T09:19:30;21.27;;;8.38;;
4738;SDS011;2383;48.632;10.156;2023-06-22T09:23:32;15.38;;;7.82;;
4738;SDS011;2383;48.632;10.156;2023-06-22T09:27:34;16.50;;;7.88;;
4738;SDS011;2383;48.632;10.156;2023-06-22T09:31:36;16.02;;;8.63;;
4738;SDS011;2383;48.632;10.156;2023-06-22T09:35:38;14.57;;;7.60;;
4738;SDS011;2383;48.632;10.156;2023-06-22T09:39:40;16.45;;;7.07;;
4738;SDS011;2383;48.632;10.156;2023-06-22T09:43:42;10.73;;;7.60;;
4738;SDS011;2383;48.632;10.156;2023-06-22T09:47:44;12.77;;;7.88;;
4738;SDS011;2383;48.632;10.156;2023-06-22T09:51:46;12.98;;;7.80;;
4738;SDS011;2383;48.632;10.156;2023-06-22T09:55:48;17.00;;;9.93;;
4738;SDS011;2383;48.632;10.156;2023-06-22T09:59:50;16.80;;;8.55;;
4738;SDS011;2383;48.632;10.156;2023-06-22T10:03:53;13.25;;;8.10;;
4738;SDS011;2383;48.632;10.156;2023-06-22T10:07:58;10.63;;;7.20;;
4738;SDS011;2383;48.632;10.156;2023-06-22T10:12:00;14.40;;;7.78;;
4738;SDS011;2383;48.632;10.156;2023-06-22T10:16:02;17.88;;;8.07;;
4738;SDS011;2383;48.632;10.156;2023-06-22T10:20:05;14.30;;;6.97;;
4738;SDS011;2383;48.632;10.156;2023-06-22T10:24:13;16.20;;;7.65;;
4738;SDS011;2383;48.632;10.156;2023-06-22T10:28:15;15.02;;;7.13;;
4738;SDS011;2383;48.632;10.156;2023-06-22T10:32:17;19.50;;;7.15;;
4738;SDS011;2383;48.632;10.156;2023-06-22T10:36:20;13.13;;;6.93;;
4738;SDS011;2383;48.632;10.156;2023-06-22T10:40:22;18.48;;;7.15;;
4738;SDS011;2383;48.632;10.156;2023-06-22T10:44:25;17.20;;;7.97;;
4738;SDS011;2383;48.632;10.156;2023-06-22T10:48:27;17.05;;;8.30;;
4738;SDS011;2383;48.632;10.156;2023-06-22T10:52:29;16.40;;;7.50;;
4738;SDS011;2383;48.632;10.156;2023-06-22T10:56:31;13.68;;;7.55;;
4738;SDS011;2383;48.632;10.156;2023-06-22T11:00:35;13.88;;;7.65;;
4738;SDS011;2383;48.632;10.156;2023-06-22T11:04:37;15.85;;;6.70;;
4738;SDS011;2383;48.632;10.156;2023-06-22T11:08:40;23.63;;;7.35;;
4738;SDS011;2383;48.632;10.156;2023-06-22T11:13:04;16.08;;;7.45;;
4738;SDS011;2383;48.632;10.156;2023-06-22T11:17:07;17.73;;;6.72;;
4738;SDS011;2383;48.632;10.156;2023-06-22T11:21:09;16.67;;;7.95;;
4738;SDS011;2383;48.632;10.156;2023-06-22T11:25:11;15.95;;;7.22;;
4738;SDS011;2383;48.632;10.156;2023-06-22T11:29:13;21.20;;;7.18;;
4738;SDS011;2383;48.632;10.156;2023-06-22T11:33:32;16.00;;;6.72;;
4738;SDS011;2383;48.632;10.156;2023-06-22T11:37:34;14.05;;;6.25;;
4738;SDS011;2383;48.632;10.156;2023-06-22T11:41:36;17.02;;;7.40;;
4738;SDS011;2383;48.632;10.156;2023-06-22T11:45:40;13.45;;;7.03;;
4738;SDS011;2383;48.632;10.156;2023-06-22T11:49:43;18.75;;;7.25;;
4738;SDS011;2383;48.632;10.156;2023-06-22T11:53:44;15.20;;;6.57;;
4738;SDS011;2383;48.632;10.156;2023-06-22T11:57:54;15.73;;;6.60;;
4738;SDS011;2383;48.632;10.156;2023-06-22T12:01:57;17.48;;;6.80;;
4738;SDS011;2383;48.632;10.156;2023-06-22T12:05:59;17.10;;;7.25;;
4738;SDS011;2383;48.632;10.156;2023-06-22T12:10:02;16.90;;;8.07;;
4738;SDS011;2383;48.632;10.156;2023-06-22T12:14:04;16.98;;;7.18;;
4738;SDS011;2383;48.632;10.156;2023-06-22T12:18:06;13.95;;;6.70;;
4738;SDS011;2383;48.632;10.156;2023-06-22T12:22:10;12.05;;;6.20;;
4738;SDS011;2383;48.632;10.156;2023-06-22T12:26:12;19.40;;;6.97;;
4738;SDS011;2383;48.632;10.156;2023-06-22T12:30:14;13.38;;;5.97;;
4738;SDS011;2383;48.632;10.156;2023-06-22T12:34:17;17.67;;;6.57;;
4738;SDS011;2383;48.632;10.156;2023-06-22T12:38:19;18.15;;;6.65;;
4738;SDS011;2383;48.632;10.156;2023-06-22T12:42:21;16.60;;;6.15;;
4738;SDS011;2383;48.632;10.156;2023-06-22T12:46:23;16.08;;;6.07;;
4738;SDS011;2383;48.632;10.156;2023-06-22T12:50:26;12.45;;;6.72;;
4738;SDS011;2383;48.632;10.156;2023-06-22T12:54:29;14.65;;;6.68;;
4738;SDS011;2383;48.632;10.156;2023-06-22T12:58:35;14.13;;;6.32;;
4738;SDS011;2383;48.632;10.156;2023-06-22T13:02:37;16.10;;;6.15;;
4738;SDS011;2383;48.632;10.156;2023-06-22T13:06:42;16.30;;;7.30;;
4738;SDS011;2383;48.632;10.156;2023-06-22T13:10:50;19.05;;;6.50;;
4738;SDS011;2383;48.632;10.156;2023-06-22T13:14:52;14.65;;;6.40;;
4738;SDS011;2383;48.632;10.156;2023-06-22T13:18:54;15.43;;;6.28;;
4738;SDS011;2383;48.632;10.156;2023-06-22T13:22:56;13.85;;;6.43;;
4738;SDS011;2383;48.632;10.156;2023-06-22T13:26:58;16.52;;;6.50;;
4738;SDS011;2383;48.632;10.156;2023-06-22T13:31:00;13.98;;;6.80;;
4738;SDS011;2383;48.632;10.156;2023-06-22T13:35:02;17.88;;;6.47;;
4738;SDS011;2383;48.632;10.156;2023-06-22T13:39:04;14.57;;;6.53;;
4738;SDS011;2383;48.632;10.156;2023-06-22T13:43:07;14.80;;;7.20;;
4738;SDS011;2383;48.632;10.156;2023-06-22T13:47:09;14.10;;;7.03;;
4738;SDS011;2383;48.632;10.156;2023-06-22T13:51:11;14.80;;;6.93;;
4738;SDS011;2383;48.632;10.156;2023-06-22T13:55:13;13.90;;;6.85;;
4738;SDS011;2383;48.632;10.156;2023-06-22T13:59:15;15.70;;;7.43;;
4738;SDS011;2383;48.632;10.156;2023-06-22T14:03:18;25.05;;;7.57;;
4738;SDS011;2383;48.632;10.156;2023-06-22T14:07:20;18.75;;;7.07;;
4738;SDS011;2383;48.632;10.156;2023-06-22T14:11:22;17.60;;;6.97;;
4738;SDS011;2383;48.632;10.156;2023-06-22T14:15:24;14.05;;;6.85;;
4738;SDS011;2383;48.632;10.156;2023-06-22T14:19:26;20.75;;;7.50;;
4738;SDS011;2383;48.632;10.156;2023-06-22T14:23:28;18.95;;;6.80;;
4738;SDS011;2383;48.632;10.156;2023-06-22T14:27:31;19.42;;;8.07;;
4738;SDS011;2383;48.632;10.156;2023-06-22T14:31:33;15.38;;;7.30;;
4738;SDS011;2383;48.632;10.156;2023-06-22T14:35:35;22.73;;;7.00;;
4738;SDS011;2383;48.632;10.156;2023-06-22T14:39:37;17.23;;;6.93;;
4738;SDS011;2383;48.632;10.156;2023-06-22T14:43:42;21.25;;;7.53;;
4738;SDS011;2383;48.632;10.156;2023-06-22T14:47:46;16.88;;;6.88;;
4738;SDS011;2383;48.632;10.156;2023-06-22T14:51:49;17.77;;;7.10;;
4738;SDS011;2383;48.632;10.156;2023-06-22T14:55:51;22.63;;;7.22;;
4738;SDS011;2383;48.632;10.156;2023-06-22T14:59:53;16.73;;;6.97;;
4738;SDS011;2383;48.632;10.156;2023-06-22T15:03:55;20.80;;;6.93;;
4738;SDS011;2383;48.632;10.156;2023-06-22T15:07:57;17.27;;;6.90;;
4738;SDS011;2383;48.632;10.156;2023-06-22T15:12:00;18.90;;;6.90;;
4738;SDS011;2383;48.632;10.156;2023-06-22T15:16:04;14.48;;;6.45;;
4738;SDS011;2383;48.632;10.156;2023-06-22T15:20:06;14.93;;;6.22;;
4738;SDS011;2383;48.632;10.156;2023-06-22T15:24:11;12.18;;;6.55;;
4738;SDS011;2383;48.632;10.156;2023-06-22T15:28:13;16.02;;;7.25;;
4738;SDS011;2383;48.632;10.156;2023-06-22T15:32:15;18.80;;;8.10;;
4738;SDS011;2383;48.632;10.156;2023-06-22T15:36:17;18.48;;;8.32;;
4738;SDS011;2383;48.632;10.156;2023-06-22T15:40:20;15.73;;;6.93;;
4738;SDS011;2383;48.632;10.156;2023-06-22T15:44:22;14.40;;;6.70;;
4738;SDS011;2383;48.632;10.156;2023-06-22T15:48:24;18.80;;;7.15;;
4738;SDS011;2383;48.632;10.156;2023-06-22T15:52:26;20.45;;;6.93;;
4738;SDS011;2383;48.632;10.156;2023-06-22T15:56:28;18.38;;;7.13;;
4738;SDS011;2383;48.632;10.156;2023-06-22T16:00:31;14.82;;;6.47;;
4738;SDS011;2383;48.632;10.156;2023-06-22T16:04:34;19.35;;;7.43;;
4738;SDS011;2383;48.632;10.156;2023-06-22T16:08:36;16.90;;;7.70;;
4738;SDS011;2383;48.632;10.156;2023-06-22T16:12:40;16.17;;;7.28;;
4738;SDS011;2383;48.632;10.156;2023-06-22T16:16:43;17.25;;;7.63;;
4738;SDS011;2383;48.632;10.156;2023-06-22T16:20:45;16.85;;;7.97;;
4738;SDS011;2383;48.632;10.156;2023-06-22T16:24:48;12.85;;;7.35;;
4738;SDS011;2383;48.632;10.156;2023-06-22T16:28:53;19.95;;;8.55;;
4738;SDS011;2383;48.632;10.156;2023-06-22T16:32:56;15.60;;;7.60;;
4738;SDS011;2383;48.632;10.156;2023-06-22T16:37:03;17.65;;;7.93;;
4738;SDS011;2383;48.632;10.156;2023-06-22T16:41:06;15.85;;;8.02;;
4738;SDS011;2383;48.632;10.156;2023-06-22T16:45:08;10.95;;;6.95;;
4738;SDS011;2383;48.632;10.156;2023-06-22T16:49:11;16.13;;;8.15;;
4738;SDS011;2383;48.632;10.156;2023-06-22T16:53:13;15.77;;;7.57;;
4738;SDS011;2383;48.632;10.156;2023-06-22T16:57:15;17.90;;;8.57;;
4738;SDS011;2383;48.632;10.156;2023-06-22T17:01:19;17.40;;;8.77;;
4738;SDS011;2383;48.632;10.156;2023-06-22T17:05:24;22.38;;;6.93;;
4738;SDS011;2383;48.632;10.156;2023-06-22T17:09:28;16.85;;;5.75;;
4738;SDS011;2383;48.632;10.156;2023-06-22T17:13:34;14.55;;;5.47;;
4738;SDS011;2383;48.632;10.156;2023-06-22T17:17:40;16.75;;;5.53;;
4738;SDS011;2383;48.632;10.156;2023-06-22T17:21:43;17.42;;;5.53;;
4738;SDS011;2383;48.632;10.156;2023-06-22T17:25:48;17.05;;;5.13;;
4738;SDS011;2383;48.632;10.156;2023-06-22T17:30:06;15.32;;;4.93;;
4738;SDS011;2383;48.632;10.156;2023-06-22T17:34:17;17.00;;;5.43;;
4738;SDS011;2383;48.632;10.156;2023-06-22T17:38:22;11.73;;;5.00;;
4738;SDS011;2383;48.632;10.156;2023-06-22T17:42:24;16.13;;;5.90;;
4738;SDS011;2383;48.632;10.156;2023-06-22T17:46:32;15.60;;;5.65;;
4738;SDS011;2383;48.632;10.156;2023-06-22T17:50:39;19.83;;;5.07;;
4738;SDS011;2383;48.632;10.156;2023-06-22T17:54:42;9.93;;;5.13;;
4738;SDS011;2383;48.632;10.156;2023-06-22T17:58:50;18.27;;;5.78;;
4738;SDS011;2383;48.632;10.156;2023-06-22T18:02:55;17.33;;;5.90;;
4738;SDS011;2383;48.632;10.156;2023-06-22T18:06:58;25.05;;;7.15;;
4738;SDS011;2383;48.632;10.156;2023-06-22T18:11:01;17.08;;;6.63;;
4738;SDS011;2383;48.632;10.156;2023-06-22T18:15:07;23.38;;;6.38;;
4738;SDS011;2383;48.632;10.156;2023-06-22T18:19:10;17.40;;;6.07;;
4738;SDS011;2383;48.632;10.156;2023-06-22T18:23:14;26.05;;;6.65;;
4738;SDS011;2383;48.632;10.156;2023-06-22T18:27:17;21.90;;;7.45;;
4738;SDS011;2383;48.632;10.156;2023-06-22T18:31:21;20.65;;;7.53;;
4738;SDS011;2383;48.632;10.156;2023-06-22T18:35:24;29.60;;;8.27;;
4738;SDS011;2383;48.632;10.156;2023-06-22T18:39:26;20.95;;;8.13;;
4738;SDS011;2383;48.632;10.156;2023-06-22T18:43:29;22.02;;;7.88;;
4738;SDS011;2383;48.632;10.156;2023-06-22T18:47:40;22.65;;;7.65;;
4738;SDS011;2383;48.632;10.156;2023-06-22T18:51:57;14.13;;;7.32;;
4738;SDS011;2383;48.632;10.156;2023-06-22T18:56:13;13.48;;;6.68;;
4738;SDS011;2383;48.632;10.156;2023-06-22T19:00:16;16.98;;;6.80;;
4738;SDS011;2383;48.632;10.156;2023-06-22T19:04:19;22.85;;;8.73;;
4738;SDS011;2383;48.632;10.156;2023-06-22T19:08:22;16.75;;;8.00;;
4738;SDS011;2383;48.632;10.156;2023-06-22T19:12:25;18.50;;;7.72;;
4738;SDS011;2383;48.632;10.156;2023-06-22T19:16:30;17.33;;;7.20;;
4738;SDS011;2383;48.632;10.156;2023-06-22T19:20:32;17.08;;;7.28;;
4738;SDS011;2383;48.632;10.156;2023-06-22T19:24:48;17.08;;;7.03;;
4738;SDS011;2383;48.632;10.156;2023-06-22T19:28:54;16.33;;;7.35;;
4738;SDS011;2383;48.632;10.156;2023-06-22T19:33:00;19.58;;;7.72;;
4738;SDS011;2383;48.632;10.156;2023-06-22T19:37:13;14.82;;;6.18;;
4738;SDS011;2383;48.632;10.156;2023-06-22T19:41:18;18.83;;;8.13;;
4738;SDS011;2383;48.632;10.156;2023-06-22T19:45:23;17.30;;;7.47;;
4738;SDS011;2383;48.632;10.156;2023-06-22T19:49:25;14.98;;;7.38;;
4738;SDS011;2383;48.632;10.156;2023-06-22T19:53:27;19.45;;;7.75;;
4738;SDS011;2383;48.632;10.156;2023-06-22T19:57:35;15.27;;;7.28;;
4738;SDS011;2383;48.632;10.156;2023-06-22T20:01:38;10.82;;;6.22;;
4738;SDS011;2383;48.632;10.156;2023-06-22T20:05:42;19.10;;;6.57;;
4738;SDS011;2383;48.632;10.156;2023-06-22T20:09:45;15.85;;;7.82;;
4738;SDS011;2383;48.632;10.156;2023-06-22T20:14:05;14.60;;;8.27;;
4738;SDS011;2383;48.632;10.156;2023-06-22T20:18:08;19.10;;;8.25;;
4738;SDS011;2383;48.632;10.156;2023-06-22T20:22:11;15.18;;;7.00;;
4738;SDS011;2383;48.632;10.156;2023-06-22T20:26:13;13.48;;;7.82;;
4738;SDS011;2383;48.632;10.156;2023-06-22T20:30:19;19.15;;;8.05;;
4738;SDS011;2383;48.632;10.156;2023-06-22T20:34:22;14.52;;;6.82;;
4738;SDS011;2383;48.632;10.156;2023-06-22T20:38:25;14.73;;;7.10;;
4738;SDS011;2383;48.632;10.156;2023-06-22T20:42:29;15.38;;;7.47;;
4738;SDS011;2383;48.632;10.156;2023-06-22T20:46:31;17.55;;;7.30;;
4738;SDS011;2383;48.632;10.156;2023-06-22T20:50:33;10.57;;;5.90;;
4738;SDS011;2383;48.632;10.156;2023-06-22T20:54:35;14.50;;;7.63;;
4738;SDS011;2383;48.632;10.156;2023-06-22T20:58:37;15.90;;;6.82;;
4738;SDS011;2383;48.632;10.156;2023-06-22T21:02:39;19.67;;;7.65;;
4738;SDS011;2383;48.632;10.156;2023-06-22T21:06:42;15.95;;;6.45;;
4738;SDS011;2383;48.632;10.156;2023-06-22T21:10:44;13.38;;;6.10;;
4738;SDS011;2383;48.632;10.156;2023-06-22T21:14:46;11.68;;;6.18;;
4738;SDS011;2383;48.632;10.156;2023-06-22T21:18:48;16.15;;;5.53;;
4738;SDS011;2383;48.632;10.156;2023-06-22T21:22:50;16.17;;;5.85;;
4738;SDS011;2383;48.632;10.156;2023-06-22T21:26:52;13.10;;;5.28;;
4738;SDS011;2383;48.632;10.156;2023-06-22T21:30:54;14.45;;;4.85;;
4738;SDS011;2383;48.632;10.156;2023-06-22T21:34:57;8.48;;;5.18;;
4738;SDS011;2383;48.632;10.156;2023-06-22T21:38:59;7.43;;;4.45;;
4738;SDS011;2383;48.632;10.156;2023-06-22T21:43:03;14.57;;;5.15;;
4738;SDS011;2383;48.632;10.156;2023-06-22T21:47:05;11.10;;;4.80;;
4738;SDS011;2383;48.632;10.156;2023-06-22T21:51:07;11.10;;;4.55;;
4738;SDS011;2383;48.632;10.156;2023-06-22T21:55:10;12.63;;;4.40;;
4738;SDS011;2383;48.632;10.156;2023-06-22T21:59:12;7.88;;;3.67;;
4738;SDS011;2383;48.632;10.156;2023-06-22T22:03:14;10.27;;;3.88;;
4738;SDS011;2383;48.632;10.156;2023-06-22T22:07:16;8.35;;;3.70;;
4738;SDS011;2383;48.632;10.156;2023-06-22T22:11:19;4.97;;;3.47;;
4738;SDS011;2383;48.632;10.156;2023-06-22T22:15:23;5.60;;;3.20;;
4738;SDS011;2383;48.632;10.156;2023-06-22T22:19:25;6.30;;;3.70;;
4738;SDS011;2383;48.632;10.156;2023-06-22T22:23:27;9.50;;;3.17;;
4738;SDS011;2383;48.632;10.156;2023-06-22T22:27:30;6.28;;;3.53;;
4738;SDS011;2383;48.632;10.156;2023-06-22T22:31:31;9.85;;;4.32;;
4738;SDS011;2383;48.632;10.156;2023-06-22T22:35:39;4.90;;;3.20;;
4738;SDS011;2383;48.632;10.156;2023-06-22T22:39:41;5.30;;;3.55;;
4738;SDS011;2383;48.632;10.156;2023-06-22T22:43:43;7.30;;;3.45;;
4738;SDS011;2383;48.632;10.156;2023-06-22T22:47:45;7.78;;;3.97;;
4738;SDS011;2383;48.632;10.156;2023-06-22T22:51:47;9.07;;;3.78;;
4738;SDS011;2383;48.632;10.156;2023-06-22T22:55:49;7.40;;;3.50;;
4738;SDS011;2383;48.632;10.156;2023-06-22T22:59:51;6.80;;;3.55;;
4738;SDS011;2383;48.632;10.156;2023-06-22T23:03:54;10.88;;;4.80;;
4738;SDS011;2383;48.632;10.156;2023-06-22T23:07:57;7.25;;;3.35;;
4738;SDS011;2383;48.632;10.156;2023-06-22T23:11:59;7.88;;;3.70;;
4738;SDS011;2383;48.632;10.156;2023-06-22T23:16:01;4.72;;;3.40;;
4738;SDS011;2383;48.632;10.156;2023-06-22T23:20:05;3.63;;;2.90;;
4738;SDS011;2383;48.632;10.156;2023-06-22T23:24:11;5.20;;;2.65;;
4738;SDS011;2383;48.632;10.156;2023-06-22T23:28:13;4.50;;;2.30;;
4738;SDS011;2383;48.632;10.156;2023-06-22T23:32:29;4.80;;;2.33;;
4738;SDS011;2383;48.632;10.156;2023-06-22T23:36:32;4.32;;;2.33;;
4738;SDS011;2383;48.632;10.156;2023-06-22T23:40:33;4.63;;;2.00;;
4738;SDS011;2383;48.632;10.156;2023-06-22T23:44:37;6.47;;;2.00;;
4738;SDS011;2383;48.632;10.156;2023-06-22T23:48:39;2.60;;;2.13;;
4738;SDS011;2383;48.632;10.156;2023-06-22T23:52:46;5.95;;;2.20;;
4738;SDS011;2383;48.632;10.156;2023-06-22T23:56:51;4.22;;;2.13;;
